Hickox, Pennsylvania
Current Conditions -  °F | °C
As of 11:56 AM on Thursday 23 Oct 2014 (Local Time) from KELZ Reporting Station
Few Clouds Few Clouds  
Wind Chill: 50°   Ceiling: Unl
Heat Index: 50°   Visibility: 10mi
Dew Point: 40°   Wind: 12mph
Humidity: 68%   Direction: 350°N
Pressure: 30.03"   Gusts: 22mph
Location:  41.915°N, 77.8855°W
Report Text: KELZ 231556Z AUTO 35010G19KT 10SM FEW020 10/04 A3003 RMK AO2 SLP178 T01000044
Loading
Personal Weather Stations






























Interactive Weather Map
Tropical Storm Tracking
New forecast layout! Learn more

10-Day Weather Forecast

Advertisements
Track Severe Weather on mobile